Aviation Digital Data Service (ADDS)

Output produced by METARs form (1521 UTC 23 January 2019)
found at http://www.aviationweather.gov/metar/data/
 
METAR text: FPST 230900Z 18006KT 9999 FEW025CB BKN110 29/24 Q1014 RETS
Conditions at: FPST (SAO TOME IL/SALA, ST) observed 0900 UTC 23 January 2019
Temperature: 29.0°C (84°F)
Dewpoint: 24.0°C (75°F) [RH = 74%]
Pressure (altimeter): 29.94 inches Hg (1014.0 mb)
Winds: from the S (180 degrees) at 7 MPH (6 knots; 3.1 m/s)
Visibility: 6 or more miles (10+ km)
Ceiling: 11000 feet AGL
Clouds: few clouds at 2500 feet AGL
broken clouds at 11000 feet AGL
Weather: no significant weather observed at this time

METAR text: FPST 222200Z 25004KT 9999 FEW020CB BKN040 27/24 Q1012 NOSIG
Conditions at: FPST (SAO TOME IL/SALA, ST) observed 2200 UTC 22 January 2019
Temperature: 27.0°C (81°F)
Dewpoint: 24.0°C (75°F) [RH = 84%]
Pressure (altimeter): 29.88 inches Hg (1012.0 mb)
Winds: from the WSW (250 degrees) at 5 MPH (4 knots; 2.1 m/s)
Visibility: 6 or more miles (10+ km)
Ceiling: 4000 feet AGL
Clouds: few clouds at 2000 feet AGL
broken clouds at 4000 feet AGL
Weather: no significant weather observed at this time

METAR text: FPST 221500Z 12007KT 9999 FEW020CB SCT040 BKN100 31/27 Q1010 NOSIG
Conditions at: FPST (SAO TOME IL/SALA, ST) observed 1500 UTC 22 January 2019
Temperature: 31.0°C (88°F)
Dewpoint: 27.0°C (81°F) [RH = 79%]
Pressure (altimeter): 29.82 inches Hg (1010.0 mb)
Winds: from the ESE (120 degrees) at 8 MPH (7 knots; 3.6 m/s)
Visibility: 6 or more miles (10+ km)
Ceiling: 10000 feet AGL
Clouds: few clouds at 2000 feet AGL
scattered clouds at 4000 feet AGL
broken clouds at 10000 feet AGL
Weather: no significant weather observed at this time

METAR text: FPST 221100Z 04004KT 9999 FEW023 SCT110 30/25 Q1013 NOSIG
Conditions at: FPST (SAO TOME IL/SALA, ST) observed 1100 UTC 22 January 2019
Temperature: 30.0°C (86°F)
Dewpoint: 25.0°C (77°F) [RH = 75%]
Pressure (altimeter): 29.91 inches Hg (1013.0 mb)
Winds: from the NE (40 degrees) at 5 MPH (4 knots; 2.1 m/s)
Visibility: 6 or more miles (10+ km)
Ceiling: at least 12,000 feet AGL
Clouds: few clouds at 2300 feet AGL
scattered clouds at 11000 feet AGL
Weather: no significant weather observed at this time

METAR text: FPST 220900Z 13006KT 9999 FEW025 BKN 110 29/24 Q1014 NOSIG
Conditions at: FPST (SAO TOME IL/SALA, ST) observed 0900 UTC 22 January 2019
Temperature: 29.0°C (84°F)
Dewpoint: 24.0°C (75°F) [RH = 74%]
Pressure (altimeter): 29.94 inches Hg (1014.0 mb)
Winds: from the SE (130 degrees) at 7 MPH (6 knots; 3.1 m/s)
Visibility: 6 or more miles (10+ km)
Ceiling: 11000 feet AGL
Clouds: few clouds at 2500 feet AGL
broken clouds at 11000 feet AGL
Weather: no significant weather observed at this time

METAR text: FPST 220700Z 27003KT 9999 FEW020 SCT110 25/23 Q1013 NOSIG
Conditions at: FPST (SAO TOME IL/SALA, ST) observed 0700 UTC 22 January 2019
Temperature: 25.0°C (77°F)
Dewpoint: 23.0°C (73°F) [RH = 89%]
Pressure (altimeter): 29.91 inches Hg (1013.0 mb)
Winds: from the W (270 degrees) at 3 MPH (3 knots; 1.5 m/s)
Visibility: 6 or more miles (10+ km)
Ceiling: at least 12,000 feet AGL
Clouds: few clouds at 2000 feet AGL
scattered clouds at 11000 feet AGL
Weather: no significant weather observed at this time